Terminal Aerodrome Forecast
Issued by NWS Grand Forks, ND

Home | Current Version | Previous Version | Graphics & Text | Print | Product List | Glossary On
Versions: 1 2 3 4 5 6 7 8 9 10 11 12 13 14 15 16 17 18 19
755
FTUS43 KFGF 212125 AAA
TAFGFK
TAF AMD
KGFK 212125Z 2121/2218 17014G23KT P6SM BKN110
     FM212200 24015G23KT P6SM VCTS BKN060CB
     FM220000 27013KT P6SM BKN080
     FM220600 VRB04KT P6SM FEW250=

USA.gov is the U.S. government's official web portal to all federal, state and local government web resources and services.